KLCK/LCK METAR and TAF weather

Enter ICAO airport designator
Station Type Date Time Source
KLCK METAR 2019/06/26 18:15 UTC NOAA

KLCK 261815Z AUTO 24011KT 10SM SCT055 30/18 A3011 RMK AO2 T03000180


Station Type Date Time Source
KLCK Decoded METAR 2019/06/26 18:15 UTC NOAA

Rickenbacker Air National Guard Base, OH, United States (KLCK) 39-49N 082-56W
Jun 26, 2019 - 02:15 PM EDT / 2019.06.26 1815 UTC
Wind: from the WSW (240 degrees) at 13 MPH (11 KT):0
Visibility: 10 mile(s):0
Sky conditions: partly cloudy
Temperature: 86.0 F (30.0 C)
Dew Point: 64.4 F (18.0 C)
Relative Humidity: 48%
Pressure (altimeter): 30.11 in. Hg (1019 hPa)
ob: KLCK 261815Z AUTO 24011KT 10SM SCT055 30/18 A3011 RMK AO2 T03000180
cycle: 18

Station Type Date Time Source
KLCK TAF 2019/06/26 18:54 UTC NOAA

TAF KLCK 261749Z 2618/2718 25009G20KT P6SM SCT060
FM270200 23004KT P6SM SCT070
FM271500 22009KT P6SM SCT090

Example: see airport list